Terminal Aerodrome Forecast
Issued by NWS

Home | Current Version | Previous Version | Graphics & Text | Print | Product List | Glossary On
Versions: 1 2 3 4 5 6 7 8 9 10 11 12 13 14 15 16 17 18 19 20 21 22 23 24 25
728
FTUS43 KLSX 211018 AAA
TAFSUS
TAF AMD
KSUS 211018Z 2110/2206 VRB04KT 3SM -SHRA BR OVC040
      TEMPO 2110/2114 1SM -SHRA BR
     FM211400 VRB04KT 4SM BR VCSH OVC020
     FM211600 05005KT P6SM BKN030
     FM220000 VRB04KT P6SM BKN040=

USA.gov is the U.S. government's official web portal to all federal, state and local government web resources and services.